Time;durP1;ratioP1;P1;durP2;ratioP2;P2;SDS_P1;SDS_P2;PMS_P1;PMS_P2;Temp;Humidity;BMP_temperature;BMP_pressure;BME280_temperature;BME280_humidity;BME280_pressure;Samples;Min_cycle;Max_cycle;Signal;HPM_P1;HPM_P2
2023/01/31 00:00:50;;;;;;;1999.90;999.90;;;5.10;1.00;;;;;;5051804;28;20198;-70
2023/01/31 00:03:16;;;;;;;1999.90;999.90;;;5.10;1.00;;;;;;5052183;28;20168;-70
2023/01/31 00:05:41;;;;;;;1999.90;999.90;;;5.10;1.00;;;;;;5052351;28;20167;-70
2023/01/31 00:08:07;;;;;;;1999.90;999.90;;;5.10;1.00;;;;;;5051843;28;20191;-70
2023/01/31 00:10:32;;;;;;;1999.90;999.90;;;5.10;1.00;;;;;;5051898;28;20171;-70
2023/01/31 00:12:58;;;;;;;1999.90;999.90;;;5.10;1.00;;;;;;5052105;28;20171;-70
2023/01/31 00:15:24;;;;;;;1999.90;999.90;;;5.20;1.00;;;;;;5051976;28;20213;-70
2023/01/31 00:17:49;;;;;;;1999.90;999.90;;;5.20;1.00;;;;;;5051769;28;20195;-70
2023/01/31 00:20:15;;;;;;;1999.90;999.90;;;5.20;1.00;;;;;;5051854;28;20221;-70
2023/01/31 00:22:40;;;;;;;1999.90;999.90;;;5.10;1.00;;;;;;5051869;28;20187;-70
2023/01/31 00:25:06;;;;;;;1999.90;999.90;;;5.10;1.00;;;;;;5052194;28;20164;-70
2023/01/31 00:27:32;;;;;;;1999.90;999.90;;;5.10;1.00;;;;;;5051702;28;20187;-70
2023/01/31 00:29:57;;;;;;;1999.90;999.90;;;5.00;1.00;;;;;;5051480;28;20971;-70
2023/01/31 00:32:25;;;;;;;1999.90;999.90;;;5.00;1.00;;;;;;5051741;28;20172;-70
2023/01/31 00:34:52;;;;;;;1999.90;999.90;;;5.00;1.00;;;;;;5051977;28;20209;-70
2023/01/31 00:37:18;;;;;;;1999.90;999.90;;;4.90;1.00;;;;;;5051541;28;20992;-70
2023/01/31 00:39:44;;;;;;;1999.90;999.90;;;6.80;1.00;;;;;;5051623;28;20394;-70
2023/01/31 00:42:09;;;;;;;1999.90;999.90;;;4.80;1.00;;;;;;5052053;28;20414;-70
2023/01/31 00:44:35;;;;;;;1999.90;999.90;;;4.80;1.00;;;;;;5051790;28;20171;-70
2023/01/31 00:47:00;;;;;;;1999.90;999.90;;;4.80;1.00;;;;;;5051774;28;20203;-70
2023/01/31 00:49:26;;;;;;;1999.90;999.90;;;4.70;1.00;;;;;;5051425;28;20665;-70
2023/01/31 00:51:52;;;;;;;1999.90;999.90;;;4.60;1.00;;;;;;5051648;28;20226;-70
2023/01/31 00:54:17;;;;;;;1999.90;999.90;;;4.60;1.00;;;;;;5051615;28;20199;-70
2023/01/31 00:56:43;;;;;;;1999.90;999.90;;;4.40;3.70;;;;;;5051696;28;20168;-70
2023/01/31 00:59:09;;;;;;;1999.90;999.90;;;4.50;1.00;;;;;;5051653;28;20171;-70
2023/01/31 01:01:35;;;;;;;1999.90;999.90;;;4.50;6.30;;;;;;5051315;28;20314;-70
2023/01/31 01:04:01;;;;;;;1999.90;999.90;;;4.40;7.60;;;;;;5051648;28;20203;-70
2023/01/31 01:06:27;;;;;;;1999.90;999.90;;;4.30;18.70;;;;;;5051448;28;20411;-70
2023/01/31 01:08:55;;;;;;;1999.90;999.90;;;4.30;24.10;;;;;;5051372;28;20457;-70
2023/01/31 01:11:28;;;;;;;1999.90;999.90;;;4.20;34.40;;;;;;5051652;28;20401;-70
2023/01/31 01:13:54;;;;;;;1999.90;999.90;;;4.20;42.30;;;;;;5055600;28;20398;-70
2023/01/31 01:16:30;;;;;;;1999.90;999.90;;;4.30;44.10;;;;;;5055142;28;20434;-70
2023/01/31 01:18:56;;;;;;;1999.90;999.90;;;4.30;41.50;;;;;;5055127;28;20461;-70
2023/01/31 01:21:24;;;;;;;1999.90;999.90;;;4.30;33.60;;;;;;5055042;28;20433;-70
2023/01/31 01:23:51;;;;;;;1999.90;999.90;;;4.40;30.00;;;;;;5055140;28;20168;-70
2023/01/31 01:26:20;;;;;;;1999.90;999.90;;;4.40;26.60;;;;;;5055086;28;20830;-70
2023/01/31 01:28:47;;;;;;;1999.90;999.90;;;4.40;20.30;;;;;;5055009;28;20461;-70
2023/01/31 01:31:15;;;;;;;1999.90;999.90;;;4.50;17.50;;;;;;5054791;28;20402;-70
2023/01/31 01:33:41;;;;;;;1999.90;999.90;;;4.50;18.10;;;;;;5054960;28;20406;-70
2023/01/31 01:36:12;;;;;;;1999.90;999.90;;;4.50;14.70;;;;;;5054930;28;20485;-70
2023/01/31 01:38:41;;;;;;;1999.90;999.90;;;4.60;9.60;;;;;;5054972;28;20430;-70
2023/01/31 01:41:08;;;;;;;1999.90;999.90;;;4.60;1.90;;;;;;5054918;28;20441;-70
2023/01/31 01:43:42;;;;;;;1999.90;999.90;;;4.60;1.00;;;;;;5054764;28;20414;-70
2023/01/31 01:46:11;;;;;;;1999.90;999.90;;;4.60;1.00;;;;;;5054619;28;20406;-70
2023/01/31 01:48:37;;;;;;;1999.90;999.90;;;4.60;1.00;;;;;;5054802;28;20482;-70
2023/01/31 01:51:05;;;;;;;1999.90;999.90;;;4.70;1.00;;;;;;5054728;28;20434;-70
2023/01/31 01:53:33;;;;;;;1999.90;999.90;;;4.70;1.00;;;;;;5054974;28;20407;-70
2023/01/31 01:56:15;;;;;;;1999.90;999.90;;;4.70;1.00;;;;;;5054771;28;20838;-70
2023/01/31 01:59:07;;;;;;;1999.90;999.90;;;4.70;1.00;;;;;;5054475;28;20500;-70
2023/01/31 02:01:35;;;;;;;1999.90;999.90;;;4.70;1.00;;;;;;5041459;28;20784;-70
2023/01/31 02:04:04;;;;;;;1999.90;999.90;;;4.70;1.00;;;;;;5054536;28;20406;-70
2023/01/31 02:06:29;;;;;;;1999.90;999.90;;;4.70;1.00;;;;;;5054462;28;20399;-70
2023/01/31 02:08:56;;;;;;;1999.90;999.90;;;4.70;1.00;;;;;;5054346;28;20822;-70
2023/01/31 02:11:25;;;;;;;1999.90;999.90;;;4.70;1.00;;;;;;5054297;28;20160;-70
2023/01/31 02:13:59;;;;;;;1999.90;999.90;;;4.70;5.40;;;;;;5054356;28;20401;-70
2023/01/31 02:16:24;;;;;;;1999.90;999.90;;;4.70;1.00;;;;;;5054472;28;20390;-70
2023/01/31 02:18:50;;;;;;;1999.90;999.90;;;4.70;1.00;;;;;;5054478;28;20441;-70
2023/01/31 02:21:46;;;;;;;1999.90;999.90;;;4.70;1.00;;;;;;5054171;28;20172;-70
2023/01/31 02:24:43;;;;;;;1999.90;999.90;;;4.70;1.00;;;;;;5054174;28;20259;-70
2023/01/31 02:27:17;;;;;;;1999.90;999.90;;;4.70;1.00;;;;;;5054214;28;21011;-70
2023/01/31 02:29:51;;;;;;;1999.90;999.90;;;4.60;1.00;;;;;;5053738;28;20457;-70
2023/01/31 02:32:57;;;;;;;1999.90;999.90;;;4.60;2.80;;;;;;5054279;28;20808;-70
2023/01/31 02:36:00;;;;;;;1999.90;999.90;;;4.50;1.00;;;;;;5054232;28;20410;-70
2023/01/31 02:38:50;;;;;;;1999.90;999.90;;;4.50;1.00;;;;;;5054024;28;20414;-71
2023/01/31 02:41:35;;;;;;;1999.90;999.90;;;4.40;1.00;;;;;;5054179;28;20399;-70
2023/01/31 02:47:26;;;;;;;1999.90;999.90;;;4.30;1.00;;;;;;5053878;28;20464;-70
2023/01/31 02:50:05;;;;;;;1999.90;999.90;;;4.20;2.70;;;;;;5053587;28;20453;-70
2023/01/31 02:52:42;;;;;;;1999.90;999.90;;;4.20;7.90;;;;;;5053763;28;20585;-70
2023/01/31 02:58:00;;;;;;;1999.90;999.90;;;4.00;24.70;;;;;;5053590;28;20194;-70
2023/01/31 03:00:28;;;;;;;1999.90;999.90;;;4.00;34.90;;;;;;5053301;28;20417;-70
2023/01/31 03:02:55;;;;;;;1999.90;999.90;;;4.00;44.80;;;;;;5053584;28;20789;-70
2023/01/31 03:05:21;;;;;;;1999.90;999.90;;;4.00;46.40;;;;;;5053257;28;20832;-70
2023/01/31 03:07:53;;;;;;;1999.90;999.90;;;3.90;43.50;;;;;;5052999;28;20946;-70
2023/01/31 03:10:31;;;;;;;1999.90;999.90;;;4.00;51.00;;;;;;5053379;28;20540;-70
2023/01/31 03:13:22;;;;;;;1999.90;999.90;;;4.00;50.60;;;;;;5053299;28;20434;-69
2023/01/31 03:18:59;;;;;;;1999.90;999.90;;;3.90;48.50;;;;;;5053054;28;20413;-69
2023/01/31 03:21:34;;;;;;;1999.90;999.90;;;3.90;45.10;;;;;;5052877;28;20551;-69
2023/01/31 03:24:01;;;;;;;1999.90;999.90;;;3.90;57.10;;;;;;5052963;28;20394;-69
2023/01/31 03:26:27;;;;;;;1999.90;999.90;;;3.80;72.40;;;;;;5052861;28;20511;-69
2023/01/31 03:28:56;;;;;;;1999.90;999.90;;;3.90;92.90;;;;;;5052578;28;20950;-69
2023/01/31 03:31:35;;;;;;;1999.90;999.90;;;3.80;86.50;;;;;;5052732;28;20193;-69
2023/01/31 03:34:07;;;;;;;1999.90;999.90;;;3.90;98.20;;;;;;5052877;28;20547;-70
2023/01/31 03:36:52;;;;;;;1999.90;999.90;;;3.80;94.70;;;;;;5052277;28;20403;-69
2023/01/31 03:39:39;;;;;;;1999.90;999.90;;;3.80;99.90;;;;;;5052440;28;20168;-69
2023/01/31 03:42:18;;;;;;;1999.90;999.90;;;3.70;99.90;;;;;;5052445;28;20406;-69
2023/01/31 03:44:57;;;;;;;1999.90;999.90;;;3.70;99.90;;;;;;5052508;28;20178;-69
2023/01/31 03:47:28;;;;;;;1999.90;999.90;;;3.70;99.90;;;;;;5052566;28;20203;-69
2023/01/31 03:49:58;;;;;;;1999.90;999.90;;;3.70;99.90;;;;;;5052252;28;20195;-69
2023/01/31 03:52:30;;;;;;;1999.90;999.90;;;3.70;99.90;;;;;;5052406;28;20258;-69
2023/01/31 03:55:14;;;;;;;1999.90;999.90;;;3.60;99.90;;;;;;5052460;28;20168;-69
2023/01/31 03:57:44;;;;;;;1999.90;999.90;;;3.60;99.90;;;;;;5052859;28;20425;-70
2023/01/31 04:00:14;;;;;;;1999.90;999.90;;;3.60;99.90;;;;;;5052287;28;20183;-70
2023/01/31 04:02:40;;;;;;;1999.90;999.90;;;3.60;99.90;;;;;;5052522;28;20496;-70
2023/01/31 04:05:20;;;;;;;1999.90;999.90;;;3.60;99.90;;;;;;5052453;28;20410;-70
2023/01/31 04:07:45;;;;;;;1999.90;999.90;;;3.60;99.90;;;;;;5052060;28;20206;-70
2023/01/31 04:10:18;;;;;;;1999.90;999.90;;;3.60;99.90;;;;;;5051906;28;20235;-70
2023/01/31 04:12:44;;;;;;;1999.90;999.90;;;3.60;99.90;;;;;;5052247;28;20225;-70
2023/01/31 04:15:11;;;;;;;1999.90;999.90;;;3.60;99.90;;;;;;5052401;28;20172;-70
2023/01/31 04:17:37;;;;;;;1999.90;999.90;;;3.70;99.90;;;;;;5052182;28;20528;-70
2023/01/31 04:20:04;;;;;;;1999.90;999.90;;;3.60;99.90;;;;;;5052078;28;20172;-70
2023/01/31 04:22:30;;;;;;;1999.90;999.90;;;3.70;99.90;;;;;;5052011;28;20419;-70
2023/01/31 04:24:55;;;;;;;1999.90;999.90;;;3.70;99.90;;;;;;5051980;28;20176;-70
2023/01/31 04:27:21;;;;;;;1999.90;999.90;;;3.70;99.90;;;;;;5051956;28;20192;-70
2023/01/31 04:29:46;;;;;;;1999.90;999.90;;;3.70;99.90;;;;;;5051758;28;20254;-70
2023/01/31 04:32:12;;;;;;;1999.90;999.90;;;3.60;99.90;;;;;;5052079;28;20164;-70
2023/01/31 04:34:38;;;;;;;1999.90;999.90;;;3.80;99.90;;;;;;5052019;28;20174;-70
2023/01/31 04:37:03;;;;;;;1999.90;999.90;;;3.80;99.90;;;;;;5051881;28;20179;-70
2023/01/31 04:39:29;;;;;;;1999.90;999.90;;;3.90;99.90;;;;;;5052254;28;20202;-70
2023/01/31 04:41:54;;;;;;;1999.90;999.90;;;3.90;99.90;;;;;;5051950;28;20174;-70
2023/01/31 04:44:20;;;;;;;1999.90;999.90;;;3.80;99.90;;;;;;5052028;28;20603;-70
2023/01/31 04:46:46;;;;;;;1999.90;999.90;;;3.70;99.90;;;;;;5052867;28;20170;-71
2023/01/31 04:49:12;;;;;;;1999.90;999.90;;;3.80;99.90;;;;;;5055955;28;20191;-70
2023/01/31 04:51:38;;;;;;;1999.90;999.90;;;3.80;99.90;;;;;;5055686;28;20168;-70
2023/01/31 04:54:04;;;;;;;1999.90;999.90;;;3.80;99.90;;;;;;5055871;28;20401;-70
2023/01/31 04:56:30;;;;;;;1999.90;999.90;;;3.80;99.90;;;;;;5055716;28;20172;-70
2023/01/31 04:58:56;;;;;;;1999.90;999.90;;;3.80;99.90;;;;;;5055694;28;20209;-70
2023/01/31 05:01:22;;;;;;;1999.90;999.90;;;3.70;99.90;;;;;;5055772;28;20485;-70
2023/01/31 05:03:48;;;;;;;1999.90;999.90;;;3.70;99.90;;;;;;5055750;28;20402;-70
2023/01/31 05:06:13;;;;;;;1999.90;999.90;;;3.70;99.90;;;;;;5055883;28;20217;-70
2023/01/31 05:08:39;;;;;;;1999.90;999.90;;;3.60;99.90;;;;;;5046897;28;20258;-70
2023/01/31 05:11:05;;;;;;;1999.90;999.90;;;3.70;99.90;;;;;;5035573;28;20168;-70
2023/01/31 05:13:32;;;;;;;1999.90;999.90;;;3.70;99.90;;;;;;5035543;28;20628;-70
2023/01/31 05:15:57;;;;;;;1999.90;999.90;;;3.70;99.90;;;;;;5035555;28;20407;-70
2023/01/31 05:18:24;;;;;;;1999.90;999.90;;;3.70;99.90;;;;;;5035445;28;20509;-70
2023/01/31 05:20:50;;;;;;;1999.90;999.90;;;3.80;99.90;;;;;;5035278;28;20192;-70
2023/01/31 05:23:16;;;;;;;1999.90;999.90;;;3.80;99.90;;;;;;5035463;28;20753;-70
2023/01/31 05:25:42;;;;;;;1999.90;999.90;;;3.90;99.90;;;;;;5035307;28;20171;-70
2023/01/31 05:28:08;;;;;;;1999.90;999.90;;;3.90;99.90;;;;;;5035211;28;20455;-70
2023/01/31 05:30:35;;;;;;;1999.90;999.90;;;4.00;99.90;;;;;;5035090;28;20960;-70
2023/01/31 05:33:00;;;;;;;1999.90;999.90;;;4.10;99.90;;;;;;5035395;28;20485;-70
2023/01/31 05:35:26;;;;;;;1999.90;999.90;;;4.10;99.90;;;;;;5035240;28;20497;-70
2023/01/31 05:37:55;;;;;;;1999.90;999.90;;;4.10;99.90;;;;;;5035021;28;20552;-70
2023/01/31 05:40:21;;;;;;;1999.90;999.90;;;4.10;99.90;;;;;;5034914;28;20172;-70
2023/01/31 05:42:59;;;;;;;1999.90;999.90;;;4.10;99.90;;;;;;5034936;28;20403;-70
2023/01/31 05:45:25;;;;;;;1999.90;999.90;;;4.10;99.90;;;;;;5034907;28;20407;-70
2023/01/31 05:47:51;;;;;;;1999.90;999.90;;;4.20;99.90;;;;;;5034605;28;20513;-70
2023/01/31 05:50:18;;;;;;;1999.90;999.90;;;4.20;99.90;;;;;;5034560;28;21024;-70
2023/01/31 05:52:52;;;;;;;1999.90;999.90;;;4.20;99.90;;;;;;5034898;28;20403;-70
2023/01/31 05:55:18;;;;;;;1999.90;999.90;;;4.20;99.90;;;;;;5034693;28;20449;-70
2023/01/31 05:57:45;;;;;;;1999.90;999.90;;;4.20;99.90;;;;;;5034099;28;20427;-70
2023/01/31 06:00:12;;;;;;;1999.90;999.90;;;4.20;99.90;;;;;;5033972;28;20415;-70
2023/01/31 06:02:37;;;;;;;1999.90;999.90;;;4.20;99.90;;;;;;5034650;28;20419;-70
2023/01/31 06:05:03;;;;;;;1999.90;999.90;;;4.20;99.90;;;;;;5034475;28;20561;-70
2023/01/31 06:07:29;;;;;;;1999.90;999.90;;;4.20;99.90;;;;;;5034373;28;20193;-70
2023/01/31 06:09:54;;;;;;;1999.90;999.90;;;4.20;99.90;;;;;;5034404;28;20446;-71
2023/01/31 06:12:20;;;;;;;1999.90;999.90;;;4.20;99.90;;;;;;5016910;28;20250;-70
2023/01/31 06:14:46;;;;;;;1999.90;999.90;;;4.20;99.90;;;;;;5034353;28;20166;-70
2023/01/31 06:17:11;;;;;;;1999.90;999.90;;;4.30;99.90;;;;;;5034161;28;20187;-70
2023/01/31 06:19:37;;;;;;;1999.90;999.90;;;4.30;99.90;;;;;;5034272;28;20168;-70
2023/01/31 06:22:04;;;;;;;1999.90;999.90;;;4.30;99.90;;;;;;5034510;28;20175;-70
2023/01/31 06:24:30;;;;;;;1999.90;999.90;;;4.30;99.90;;;;;;5034275;28;20638;-70
2023/01/31 06:26:55;;;;;;;1999.90;999.90;;;4.40;99.90;;;;;;5034221;28;20435;-70
2023/01/31 06:29:21;;;;;;;1999.90;999.90;;;4.40;99.90;;;;;;5033860;28;20697;-70
2023/01/31 06:31:47;;;;;;;1999.90;999.90;;;4.50;99.90;;;;;;5034322;28;20577;-70
2023/01/31 06:34:12;;;;;;;1999.90;999.90;;;4.60;99.90;;;;;;5034165;28;20252;-70
2023/01/31 06:36:38;;;;;;;1999.90;999.90;;;4.60;99.90;;;;;;5034069;28;20195;-70
2023/01/31 06:39:03;;;;;;;1999.90;999.90;;;4.70;99.90;;;;;;5034031;28;20637;-70
2023/01/31 06:41:29;;;;;;;1999.90;999.90;;;4.70;99.90;;;;;;5033996;28;20175;-70
2023/01/31 06:43:55;;;;;;;1999.90;999.90;;;4.60;99.90;;;;;;5033921;28;20169;-70
2023/01/31 06:46:21;;;;;;;1999.90;999.90;;;4.70;99.90;;;;;;5033992;28;20214;-70
2023/01/31 06:48:50;;;;;;;1999.90;999.90;;;4.70;99.90;;;;;;5033830;28;20491;-70
2023/01/31 06:51:16;;;;;;;1999.90;999.90;;;4.70;99.90;;;;;;5033695;28;20435;-70
2023/01/31 06:53:41;;;;;;;1999.90;999.90;;;4.70;99.90;;;;;;5033704;28;20407;-70
2023/01/31 06:56:09;;;;;;;1999.90;999.90;;;4.60;99.90;;;;;;5033757;28;20927;-70
2023/01/31 06:58:35;;;;;;;1999.90;999.90;;;4.60;99.90;;;;;;5033646;28;20190;-70
2023/01/31 07:01:08;;;;;;;1999.90;999.90;;;4.60;99.90;;;;;;5033483;28;20399;-70
2023/01/31 07:03:34;;;;;;;1999.90;999.90;;;4.60;99.90;;;;;;5033586;28;20200;-70
2023/01/31 07:05:59;;;;;;;1999.90;999.90;;;4.50;99.90;;;;;;5033404;28;20506;-70
2023/01/31 07:08:25;;;;;;;1999.90;999.90;;;4.50;99.90;;;;;;5033113;28;20538;-70
2023/01/31 07:10:51;;;;;;;1999.90;999.90;;;6.10;99.90;;;;;;5032299;28;20160;-70
2023/01/31 07:13:18;;;;;;;1999.90;999.90;;;4.50;99.90;;;;;;5033318;28;20223;-70
2023/01/31 07:15:44;;;;;;;1999.90;999.90;;;4.50;99.90;;;;;;5033216;28;20242;-70
2023/01/31 07:18:11;;;;;;;1999.90;999.90;;;4.50;99.90;;;;;;5033013;28;20196;-70
2023/01/31 07:20:38;;;;;;;1999.90;999.90;;;4.60;99.90;;;;;;5032917;28;20179;-70
2023/01/31 07:23:04;;;;;;;1999.90;999.90;;;4.60;99.90;;;;;;5032961;28;20416;-70
2023/01/31 07:25:30;;;;;;;1999.90;999.90;;;4.60;99.90;;;;;;5032974;28;20782;-70
2023/01/31 07:27:56;;;;;;;1999.90;999.90;;;4.70;99.90;;;;;;5032820;28;20318;-70
2023/01/31 07:30:22;;;;;;;1999.90;999.90;;;4.70;99.90;;;;;;5032794;28;20450;-70
2023/01/31 07:32:47;;;;;;;1999.90;999.90;;;4.70;99.90;;;;;;5032921;28;20169;-70
2023/01/31 07:35:13;;;;;;;1999.90;999.90;;;4.80;99.90;;;;;;5032936;28;20259;-70
2023/01/31 07:37:42;;;;;;;1999.90;999.90;;;4.80;99.90;;;;;;5032576;28;20188;-70
2023/01/31 07:40:10;;;;;;;1999.90;999.90;;;4.80;99.90;;;;;;5032431;28;20234;-70
2023/01/31 07:42:35;;;;;;;1999.90;999.90;;;4.80;99.90;;;;;;5032679;28;20814;-70
2023/01/31 07:45:01;;;;;;;1999.90;999.90;;;4.90;99.90;;;;;;5032618;28;20403;-70
2023/01/31 07:47:26;;;;;;;1999.90;999.90;;;4.90;99.90;;;;;;5032461;28;20665;-70
2023/01/31 07:49:52;;;;;;;1999.90;999.90;;;4.90;99.90;;;;;;5032583;28;20298;-70
2023/01/31 07:52:18;;;;;;;1999.90;999.90;;;5.00;99.90;;;;;;5032598;28;20168;-70
2023/01/31 07:54:43;;;;;;;1999.90;999.90;;;5.00;99.90;;;;;;5032470;28;20175;-70
2023/01/31 07:57:09;;;;;;;1999.90;999.90;;;5.00;99.90;;;;;;5032459;28;20188;-70
2023/01/31 07:59:35;;;;;;;1999.90;999.90;;;5.00;99.90;;;;;;5014854;28;20267;-70
2023/01/31 08:04:45;;;;;;;1999.90;999.90;;;5.00;99.90;;;;;;5017973;28;20406;-70
2023/01/31 08:07:11;;;;;;;1999.90;999.90;;;5.10;99.90;;;;;;5032123;28;20944;-70
2023/01/31 08:09:38;;;;;;;1999.90;999.90;;;5.10;99.90;;;;;;5032032;28;20942;-70
2023/01/31 08:12:04;;;;;;;1999.90;999.90;;;5.10;99.90;;;;;;5032402;28;20786;-70
2023/01/31 08:14:30;;;;;;;1999.90;999.90;;;5.20;99.90;;;;;;5032087;28;20407;-70
2023/01/31 08:16:55;;;;;;;1999.90;999.90;;;5.20;99.90;;;;;;5031985;28;20536;-70
2023/01/31 08:19:21;;;;;;;1999.90;999.90;;;5.30;99.90;;;;;;5031952;28;20169;-70
2023/01/31 08:21:47;;;;;;;1999.90;999.90;;;5.30;99.90;;;;;;5031917;28;20184;-70
2023/01/31 08:24:13;;;;;;;1999.90;999.90;;;5.40;99.90;;;;;;5032070;28;20413;-70
2023/01/31 08:26:40;;;;;;;1999.90;999.90;;;5.40;99.90;;;;;;5032071;28;20184;-70
2023/01/31 08:29:06;;;;;;;1999.90;999.90;;;5.40;99.90;;;;;;5031885;28;20688;-70
2023/01/31 08:31:31;;;;;;;1999.90;999.90;;;5.50;99.90;;;;;;5031897;28;20426;-70
2023/01/31 08:33:58;;;;;;;1999.90;999.90;;;5.50;99.90;;;;;;5032156;28;20688;-70
2023/01/31 08:36:26;;;;;;;1999.90;999.90;;;5.50;99.90;;;;;;5014439;28;20657;-70
2023/01/31 08:38:52;;;;;;;1999.90;999.90;;;5.60;99.90;;;;;;5032072;28;20423;-70
2023/01/31 08:41:20;;;;;;;1999.90;999.90;;;5.70;99.90;;;;;;5031923;28;20552;-70
2023/01/31 08:43:49;;;;;;;1999.90;999.90;;;5.70;99.90;;;;;;5031994;28;20403;-70
2023/01/31 08:46:15;;;;;;;1999.90;999.90;;;5.80;99.90;;;;;;5031793;28;20399;-70
2023/01/31 08:48:42;;;;;;;1999.90;999.90;;;5.80;99.90;;;;;;5031766;28;20947;-70
2023/01/31 08:51:10;;;;;;;1999.90;999.90;;;5.80;99.90;;;;;;5031860;28;20171;-70
2023/01/31 08:53:43;;;;;;;1999.90;999.90;;;5.80;99.90;;;;;;5031814;28;20418;-70
2023/01/31 08:56:10;;;;;;;1999.90;999.90;;;5.80;99.90;;;;;;5031688;28;20963;-70
2023/01/31 08:58:38;;;;;;;1999.90;999.90;;;5.80;99.90;;;;;;5031785;28;20431;-70
2023/01/31 09:01:06;;;;;;;1999.90;999.90;;;5.90;99.90;;;;;;5031574;28;20409;-70
2023/01/31 09:03:32;;;;;;;1999.90;999.90;;;5.90;99.90;;;;;;5031540;28;20403;-70
2023/01/31 09:05:59;;;;;;;1999.90;999.90;;;6.00;99.90;;;;;;5031721;28;20411;-70
2023/01/31 09:08:25;;;;;;;1999.90;999.90;;;6.00;99.90;;;;;;5031790;28;20418;-70
2023/01/31 09:10:54;;;;;;;1999.90;999.90;;;6.00;99.90;;;;;;5031524;28;20458;-70
2023/01/31 09:13:20;;;;;;;1999.90;999.90;;;5.90;99.90;;;;;;5031598;28;20255;-70
2023/01/31 09:15:45;;;;;;;1999.90;999.90;;;6.00;99.90;;;;;;5031613;28;20502;-70
2023/01/31 09:18:11;;;;;;;1999.90;999.90;;;6.00;99.90;;;;;;5031364;28;20415;-70
2023/01/31 09:20:37;;;;;;;1999.90;999.90;;;6.00;99.90;;;;;;5031258;28;20581;-70
2023/01/31 09:23:02;;;;;;;1999.90;999.90;;;6.00;99.90;;;;;;5031441;28;20257;-70
2023/01/31 09:25:28;;;;;;;1999.90;999.90;;;6.00;99.90;;;;;;5031487;28;20407;-70
2023/01/31 09:27:54;;;;;;;1999.90;999.90;;;6.10;99.90;;;;;;5031386;28;20208;-70
2023/01/31 09:30:20;;;;;;;1999.90;999.90;;;6.00;99.90;;;;;;5031183;28;20211;-70
2023/01/31 09:32:46;;;;;;;1999.90;999.90;;;6.00;99.90;;;;;;5032129;28;20897;-70
2023/01/31 09:35:12;;;;;;;1999.90;999.90;;;6.00;99.90;;;;;;5034976;28;20437;-70
2023/01/31 09:37:38;;;;;;;1999.90;999.90;;;6.10;99.90;;;;;;5035230;28;20658;-70
2023/01/31 09:40:21;;;;;;;1999.90;999.90;;;6.10;99.90;;;;;;5037290;28;20418;-69
2023/01/31 09:42:47;;;;;;;1999.90;999.90;;;6.10;99.90;;;;;;5039458;28;20786;-69
2023/01/31 09:45:31;;;;;;;1999.90;999.90;;;6.10;99.90;;;;;;5037188;28;20774;-70
2023/01/31 09:47:59;;;;;;;1999.90;999.90;;;6.10;99.90;;;;;;5038289;28;21102;-70
2023/01/31 09:50:36;;;;;;;1999.90;999.90;;;6.10;99.90;;;;;;5037473;28;20458;-69
2023/01/31 09:53:02;;;;;;;1999.90;999.90;;;6.20;99.90;;;;;;5037341;28;20803;-70
2023/01/31 09:55:50;;;;;;;1999.90;999.90;;;6.20;99.90;;;;;;5038272;28;20446;-69
2023/01/31 09:58:41;;;;;;;1999.90;999.90;;;6.20;99.90;;;;;;5034499;28;20441;-70
2023/01/31 10:01:42;;;;;;;1999.90;999.90;;;6.30;99.90;;;;;;5034251;28;20841;-70
2023/01/31 10:04:38;;;;;;;1999.90;999.90;;;6.30;99.90;;;;;;5034873;28;20414;-70
2023/01/31 10:07:38;;;;;;;1999.90;999.90;;;6.30;99.90;;;;;;5034214;28;20458;-70
2023/01/31 10:10:23;;;;;;;1999.90;999.90;;;6.40;99.90;;;;;;5016717;28;20454;-70
2023/01/31 10:12:54;;;;;;;1999.90;999.90;;;6.40;99.90;;;;;;5034401;28;20406;-70
2023/01/31 10:15:28;;;;;;;1999.90;999.90;;;6.50;99.90;;;;;;5034304;28;20439;-70
2023/01/31 10:18:01;;;;;;;1999.90;999.90;;;6.50;99.90;;;;;;5034088;28;20425;-70
2023/01/31 10:20:47;;;;;;;1999.90;999.90;;;6.60;99.90;;;;;;5034118;28;20438;-70
2023/01/31 10:23:12;;;;;;;1999.90;999.90;;;6.50;99.90;;;;;;5034467;28;20410;-70
2023/01/31 10:26:00;;;;;;;1999.90;999.90;;;6.60;99.90;;;;;;5034094;28;20415;-70
2023/01/31 10:28:31;;;;;;;1999.90;999.90;;;6.60;99.90;;;;;;5033963;28;20240;-70
2023/01/31 10:31:03;;;;;;;1999.90;999.90;;;6.70;99.90;;;;;;5033801;28;20785;-70
2023/01/31 10:33:34;;;;;;;1999.90;999.90;;;6.70;99.90;;;;;;5033874;28;20434;-70
2023/01/31 10:36:15;;;;;;;1999.90;999.90;;;6.70;99.90;;;;;;5033903;28;20893;-70
2023/01/31 10:39:04;;;;;;;1999.90;999.90;;;6.80;99.90;;;;;;5033851;28;20427;-70
2023/01/31 10:41:42;;;;;;;1999.90;999.90;;;6.80;99.90;;;;;;5020480;28;20501;-70
2023/01/31 10:44:40;;;;;;;1999.90;999.90;;;6.90;99.90;;;;;;5032996;28;20418;-70
2023/01/31 10:47:15;;;;;;;1999.90;999.90;;;6.90;99.90;;;;;;5013899;28;20446;-70
2023/01/31 10:49:47;;;;;;;1999.90;999.90;;;7.00;99.90;;;;;;5033410;28;20454;-70
2023/01/31 10:52:40;;;;;;;1999.90;999.90;;;6.90;99.90;;;;;;5033614;28;20404;-70
2023/01/31 10:55:12;;;;;;;1999.90;999.90;;;6.90;99.90;;;;;;5020311;28;20921;-70
2023/01/31 10:57:38;;;;;;;1999.90;999.90;;;6.90;99.90;;;;;;5033465;28;20553;-70
2023/01/31 11:00:04;;;;;;;1999.90;999.90;;;7.00;99.90;;;;;;5033171;28;20853;-70
2023/01/31 11:02:30;;;;;;;1999.90;999.90;;;;;;;;;;5033396;28;20314;-70
2023/01/31 11:04:58;;;;;;;1999.90;999.90;;;6.90;99.90;;;;;;5033413;28;20745;-70
2023/01/31 11:07:28;;;;;;;1999.90;999.90;;;6.90;99.90;;;;;;5033298;28;20812;-70
2023/01/31 11:09:55;;;;;;;1999.90;999.90;;;6.90;99.90;;;;;;5033283;28;20817;-70
2023/01/31 11:12:38;;;;;;;1999.90;999.90;;;7.00;99.90;;;;;;5033225;28;20410;-70
2023/01/31 11:15:14;;;;;;;1999.90;999.90;;;7.10;99.90;;;;;;5033470;28;20415;-70
2023/01/31 11:17:42;;;;;;;1999.90;999.90;;;7.20;99.90;;;;;;5033220;28;20430;-70
2023/01/31 11:20:23;;;;;;;1999.90;999.90;;;7.20;99.90;;;;;;5032964;28;20412;-70
2023/01/31 11:22:49;;;;;;;1999.90;999.90;;;7.30;99.90;;;;;;5033196;28;20426;-70
2023/01/31 11:25:21;;;;;;;1999.90;999.90;;;7.30;99.90;;;;;;5033060;28;20422;-70
2023/01/31 11:27:48;;;;;;;1999.90;999.90;;;7.40;99.90;;;;;;5032890;28;20531;-70
2023/01/31 11:30:37;;;;;;;1999.90;999.90;;;7.40;99.90;;;;;;5032855;28;20482;-70
2023/01/31 11:33:03;;;;;;;1999.90;999.90;;;7.50;99.90;;;;;;5032984;28;20411;-70
2023/01/31 11:35:31;;;;;;;1999.90;999.90;;;7.50;99.90;;;;;;5032685;28;20412;-70
2023/01/31 11:38:16;;;;;;;1999.90;999.90;;;7.50;99.90;;;;;;5032532;28;20419;-70
2023/01/31 11:40:41;;;;;;;1999.90;999.90;;;7.60;99.90;;;;;;5032621;28;20418;-70
2023/01/31 11:43:13;;;;;;;1999.90;999.90;;;7.60;99.90;;;;;;5032646;28;20415;-70
2023/01/31 11:45:43;;;;;;;1999.90;999.90;;;7.60;99.90;;;;;;5032989;28;20191;-70
2023/01/31 11:48:18;;;;;;;1999.90;999.90;;;7.50;99.90;;;;;;5032418;28;20429;-70
2023/01/31 11:50:49;;;;;;;1999.90;999.90;;;7.50;99.90;;;;;;5032515;28;20489;-70
2023/01/31 11:53:23;;;;;;;1999.90;999.90;;;7.50;99.90;;;;;;5032506;28;20399;-70
2023/01/31 11:55:50;;;;;;;1999.90;999.90;;;7.50;99.90;;;;;;5032087;28;20882;-70
2023/01/31 11:58:35;;;;;;;1999.90;999.90;;;7.40;99.90;;;;;;5032294;28;20423;-70
2023/01/31 12:01:11;;;;;;;1999.90;999.90;;;7.50;99.90;;;;;;5032184;28;20741;-70
2023/01/31 12:03:36;;;;;;;1999.90;999.90;;;7.40;99.90;;;;;;5032386;28;20444;-70
2023/01/31 12:06:08;;;;;;;1999.90;999.90;;;7.30;99.90;;;;;;5014604;28;20411;-70
2023/01/31 12:08:38;;;;;;;1999.90;999.90;;;7.20;99.90;;;;;;5032326;28;20207;-70
2023/01/31 12:11:19;;;;;;;1999.90;999.90;;;7.30;99.90;;;;;;5032352;28;20395;-70
2023/01/31 12:13:51;;;;;;;1999.90;999.90;;;7.30;99.90;;;;;;5032145;28;20414;-70
2023/01/31 12:16:24;;;;;;;1999.90;999.90;;;7.30;99.90;;;;;;5031875;28;20427;-70
2023/01/31 12:19:11;;;;;;;1999.90;999.90;;;7.30;99.90;;;;;;5032034;28;20473;-70
2023/01/31 12:22:04;;;;;;;1999.90;999.90;;;7.30;99.90;;;;;;5031560;28;20395;-70
2023/01/31 12:24:46;;;;;;;1999.90;999.90;;;7.30;99.90;;;;;;5032169;28;20395;-70
2023/01/31 12:28:00;;;;;;;1999.90;999.90;;;7.30;99.90;;;;;;5032083;28;20927;-70
2023/01/31 12:30:26;;;;;;;1999.90;999.90;;;7.40;99.90;;;;;;5030090;28;20489;-70
2023/01/31 12:32:54;;;;;;;1999.90;999.90;;;7.30;99.90;;;;;;5032031;28;20411;-70
2023/01/31 12:35:29;;;;;;;1999.90;999.90;;;7.20;99.90;;;;;;5031778;28;20230;-70
2023/01/31 12:38:21;;;;;;;1999.90;999.90;;;7.20;99.90;;;;;;5031500;28;20473;-70